sensor_id;sensor_type;location;lat;lon;timestamp;P1;durP1;ratioP1;P2;durP2;ratioP2
51374;SDS011;37465;52.738;4.752;2022-12-16T00:01:10;7.38;;;1.70;;
51374;SDS011;37465;52.738;4.752;2022-12-16T00:03:39;12.77;;;3.03;;
51374;SDS011;37465;52.738;4.752;2022-12-16T00:06:09;4.35;;;2.08;;
51374;SDS011;37465;52.738;4.752;2022-12-16T00:08:37;9.10;;;2.05;;
51374;SDS011;37465;52.738;4.752;2022-12-16T00:11:07;7.85;;;1.75;;
51374;SDS011;37465;52.738;4.752;2022-12-16T00:16:03;6.82;;;1.70;;
51374;SDS011;37465;52.738;4.752;2022-12-16T00:18:33;8.70;;;1.90;;
51374;SDS011;37465;52.738;4.752;2022-12-16T00:21:01;7.70;;;2.00;;
51374;SDS011;37465;52.738;4.752;2022-12-16T00:23:29;9.77;;;2.03;;
51374;SDS011;37465;52.738;4.752;2022-12-16T00:25:58;11.02;;;2.10;;
51374;SDS011;37465;52.738;4.752;2022-12-16T00:28:27;13.38;;;1.95;;
51374;SDS011;37465;52.738;4.752;2022-12-16T00:30:55;3.30;;;1.55;;
51374;SDS011;37465;52.738;4.752;2022-12-16T00:33:24;8.27;;;1.50;;
51374;SDS011;37465;52.738;4.752;2022-12-16T00:35:52;8.43;;;2.08;;
51374;SDS011;37465;52.738;4.752;2022-12-16T00:38:21;15.20;;;2.03;;
51374;SDS011;37465;52.738;4.752;2022-12-16T00:40:49;7.15;;;1.65;;
51374;SDS011;37465;52.738;4.752;2022-12-16T00:43:17;10.05;;;1.70;;
51374;SDS011;37465;52.738;4.752;2022-12-16T00:45:47;13.18;;;1.67;;
51374;SDS011;37465;52.738;4.752;2022-12-16T00:48:17;7.22;;;1.30;;
51374;SDS011;37465;52.738;4.752;2022-12-16T00:50:48;8.60;;;1.90;;
51374;SDS011;37465;52.738;4.752;2022-12-16T00:53:17;5.35;;;1.38;;
51374;SDS011;37465;52.738;4.752;2022-12-16T00:55:45;5.03;;;1.50;;
51374;SDS011;37465;52.738;4.752;2022-12-16T00:58:12;8.57;;;1.70;;
51374;SDS011;37465;52.738;4.752;2022-12-16T01:00:41;9.93;;;2.20;;
51374;SDS011;37465;52.738;4.752;2022-12-16T01:03:10;13.05;;;1.42;;
51374;SDS011;37465;52.738;4.752;2022-12-16T01:05:44;11.82;;;1.52;;
51374;SDS011;37465;52.738;4.752;2022-12-16T01:08:12;8.30;;;1.55;;
51374;SDS011;37465;52.738;4.752;2022-12-16T01:10:40;9.77;;;1.13;;
51374;SDS011;37465;52.738;4.752;2022-12-16T01:13:07;5.63;;;1.40;;
51374;SDS011;37465;52.738;4.752;2022-12-16T01:15:36;6.05;;;1.50;;
51374;SDS011;37465;52.738;4.752;2022-12-16T01:18:03;7.88;;;2.00;;
51374;SDS011;37465;52.738;4.752;2022-12-16T01:20:32;7.63;;;1.40;;
51374;SDS011;37465;52.738;4.752;2022-12-16T01:23:00;7.13;;;1.52;;
51374;SDS011;37465;52.738;4.752;2022-12-16T01:25:28;5.53;;;1.40;;
51374;SDS011;37465;52.738;4.752;2022-12-16T01:27:56;9.10;;;2.33;;
51374;SDS011;37465;52.738;4.752;2022-12-16T01:30:23;7.43;;;1.60;;
51374;SDS011;37465;52.738;4.752;2022-12-16T01:32:51;6.53;;;1.30;;
51374;SDS011;37465;52.738;4.752;2022-12-16T01:35:19;6.82;;;1.48;;
51374;SDS011;37465;52.738;4.752;2022-12-16T01:38:08;3.22;;;1.50;;
51374;SDS011;37465;52.738;4.752;2022-12-16T01:40:36;4.57;;;1.48;;
51374;SDS011;37465;52.738;4.752;2022-12-16T01:43:07;9.80;;;1.77;;
51374;SDS011;37465;52.738;4.752;2022-12-16T01:45:36;5.18;;;2.03;;
51374;SDS011;37465;52.738;4.752;2022-12-16T01:48:06;6.45;;;2.33;;
51374;SDS011;37465;52.738;4.752;2022-12-16T01:50:40;5.07;;;1.80;;
51374;SDS011;37465;52.738;4.752;2022-12-16T01:53:09;7.03;;;1.80;;
51374;SDS011;37465;52.738;4.752;2022-12-16T01:55:38;5.95;;;1.63;;
51374;SDS011;37465;52.738;4.752;2022-12-16T01:58:08;8.95;;;1.80;;
51374;SDS011;37465;52.738;4.752;2022-12-16T02:00:38;3.60;;;1.60;;
51374;SDS011;37465;52.738;4.752;2022-12-16T02:03:07;8.73;;;1.70;;
51374;SDS011;37465;52.738;4.752;2022-12-16T02:05:37;5.40;;;2.30;;
51374;SDS011;37465;52.738;4.752;2022-12-16T02:08:11;11.15;;;1.77;;
51374;SDS011;37465;52.738;4.752;2022-12-16T02:10:45;9.30;;;2.63;;
51374;SDS011;37465;52.738;4.752;2022-12-16T02:13:20;8.02;;;2.17;;
51374;SDS011;37465;52.738;4.752;2022-12-16T02:15:51;11.57;;;1.88;;
51374;SDS011;37465;52.738;4.752;2022-12-16T02:18:25;6.10;;;2.03;;
51374;SDS011;37465;52.738;4.752;2022-12-16T02:21:01;5.32;;;1.75;;
51374;SDS011;37465;52.738;4.752;2022-12-16T02:23:41;10.35;;;2.38;;
51374;SDS011;37465;52.738;4.752;2022-12-16T02:26:24;4.07;;;1.50;;
51374;SDS011;37465;52.738;4.752;2022-12-16T02:29:10;3.95;;;1.60;;
51374;SDS011;37465;52.738;4.752;2022-12-16T02:31:47;7.85;;;2.40;;
51374;SDS011;37465;52.738;4.752;2022-12-16T02:34:21;5.82;;;2.47;;
51374;SDS011;37465;52.738;4.752;2022-12-16T02:36:56;7.10;;;1.67;;
51374;SDS011;37465;52.738;4.752;2022-12-16T02:39:31;4.15;;;1.90;;
51374;SDS011;37465;52.738;4.752;2022-12-16T02:42:03;5.32;;;1.65;;
51374;SDS011;37465;52.738;4.752;2022-12-16T02:44:34;7.30;;;1.75;;
51374;SDS011;37465;52.738;4.752;2022-12-16T02:47:09;11.45;;;2.10;;
51374;SDS011;37465;52.738;4.752;2022-12-16T02:49:47;4.63;;;2.35;;
51374;SDS011;37465;52.738;4.752;2022-12-16T02:52:16;5.22;;;2.00;;
51374;SDS011;37465;52.738;4.752;2022-12-16T02:54:46;4.70;;;1.50;;
51374;SDS011;37465;52.738;4.752;2022-12-16T02:57:24;3.58;;;2.00;;
51374;SDS011;37465;52.738;4.752;2022-12-16T03:00:03;4.45;;;1.35;;
51374;SDS011;37465;52.738;4.752;2022-12-16T03:02:35;6.97;;;1.65;;
51374;SDS011;37465;52.738;4.752;2022-12-16T03:05:05;3.88;;;1.77;;
51374;SDS011;37465;52.738;4.752;2022-12-16T03:07:37;4.35;;;1.80;;
51374;SDS011;37465;52.738;4.752;2022-12-16T03:10:07;4.57;;;1.63;;
51374;SDS011;37465;52.738;4.752;2022-12-16T03:12:38;4.28;;;1.35;;
51374;SDS011;37465;52.738;4.752;2022-12-16T03:15:07;4.82;;;2.03;;
51374;SDS011;37465;52.738;4.752;2022-12-16T03:17:37;3.08;;;1.40;;
51374;SDS011;37465;52.738;4.752;2022-12-16T03:25:04;4.10;;;1.10;;
51374;SDS011;37465;52.738;4.752;2022-12-16T03:27:33;5.25;;;1.48;;
51374;SDS011;37465;52.738;4.752;2022-12-16T03:30:04;3.35;;;1.52;;
51374;SDS011;37465;52.738;4.752;2022-12-16T03:32:34;3.33;;;1.40;;
51374;SDS011;37465;52.738;4.752;2022-12-16T03:35:07;4.13;;;1.27;;
51374;SDS011;37465;52.738;4.752;2022-12-16T03:37:40;3.80;;;1.77;;
51374;SDS011;37465;52.738;4.752;2022-12-16T03:40:09;4.35;;;1.25;;
51374;SDS011;37465;52.738;4.752;2022-12-16T03:42:38;3.50;;;1.42;;
51374;SDS011;37465;52.738;4.752;2022-12-16T03:45:08;4.97;;;1.58;;
51374;SDS011;37465;52.738;4.752;2022-12-16T03:47:40;6.32;;;1.70;;
51374;SDS011;37465;52.738;4.752;2022-12-16T03:50:08;4.10;;;1.38;;
51374;SDS011;37465;52.738;4.752;2022-12-16T03:52:36;6.70;;;1.80;;
51374;SDS011;37465;52.738;4.752;2022-12-16T03:55:03;7.03;;;2.05;;
51374;SDS011;37465;52.738;4.752;2022-12-16T03:57:31;3.45;;;1.67;;
51374;SDS011;37465;52.738;4.752;2022-12-16T03:59:59;4.78;;;1.80;;
51374;SDS011;37465;52.738;4.752;2022-12-16T04:02:27;5.38;;;1.77;;
51374;SDS011;37465;52.738;4.752;2022-12-16T04:04:56;6.35;;;2.33;;
51374;SDS011;37465;52.738;4.752;2022-12-16T04:07:23;8.50;;;2.20;;
51374;SDS011;37465;52.738;4.752;2022-12-16T04:09:51;5.38;;;1.77;;
51374;SDS011;37465;52.738;4.752;2022-12-16T04:12:19;5.53;;;1.90;;
51374;SDS011;37465;52.738;4.752;2022-12-16T04:15:05;6.25;;;2.22;;
51374;SDS011;37465;52.738;4.752;2022-12-16T04:17:51;6.28;;;2.10;;
51374;SDS011;37465;52.738;4.752;2022-12-16T04:20:38;8.48;;;2.17;;
51374;SDS011;37465;52.738;4.752;2022-12-16T04:26:16;3.70;;;1.60;;
51374;SDS011;37465;52.738;4.752;2022-12-16T04:28:44;5.93;;;2.17;;
51374;SDS011;37465;52.738;4.752;2022-12-16T04:31:12;7.53;;;3.38;;
51374;SDS011;37465;52.738;4.752;2022-12-16T04:33:39;7.45;;;3.47;;
51374;SDS011;37465;52.738;4.752;2022-12-16T04:36:26;7.72;;;3.92;;
51374;SDS011;37465;52.738;4.752;2022-12-16T04:39:12;11.25;;;3.65;;
51374;SDS011;37465;52.738;4.752;2022-12-16T04:41:57;7.88;;;4.00;;
51374;SDS011;37465;52.738;4.752;2022-12-16T04:44:42;10.75;;;3.35;;
51374;SDS011;37465;52.738;4.752;2022-12-16T04:47:27;6.57;;;2.78;;
51374;SDS011;37465;52.738;4.752;2022-12-16T04:50:16;9.20;;;2.67;;
51374;SDS011;37465;52.738;4.752;2022-12-16T04:53:03;7.47;;;2.83;;
51374;SDS011;37465;52.738;4.752;2022-12-16T04:55:48;6.03;;;2.58;;
51374;SDS011;37465;52.738;4.752;2022-12-16T04:58:33;8.30;;;2.55;;
51374;SDS011;37465;52.738;4.752;2022-12-16T05:01:21;10.70;;;2.50;;
51374;SDS011;37465;52.738;4.752;2022-12-16T05:04:06;5.70;;;2.40;;
51374;SDS011;37465;52.738;4.752;2022-12-16T05:06:51;8.13;;;3.45;;
51374;SDS011;37465;52.738;4.752;2022-12-16T05:09:38;7.53;;;2.80;;
51374;SDS011;37465;52.738;4.752;2022-12-16T05:12:23;8.38;;;2.85;;
51374;SDS011;37465;52.738;4.752;2022-12-16T05:15:09;8.55;;;3.72;;
51374;SDS011;37465;52.738;4.752;2022-12-16T05:17:54;6.97;;;2.50;;
51374;SDS011;37465;52.738;4.752;2022-12-16T05:20:39;6.97;;;2.50;;
51374;SDS011;37465;52.738;4.752;2022-12-16T05:23:24;6.78;;;2.40;;
51374;SDS011;37465;52.738;4.752;2022-12-16T05:26:11;12.85;;;2.83;;
51374;SDS011;37465;52.738;4.752;2022-12-16T05:28:56;7.63;;;3.00;;
51374;SDS011;37465;52.738;4.752;2022-12-16T05:31:42;6.55;;;2.65;;
51374;SDS011;37465;52.738;4.752;2022-12-16T05:34:27;5.85;;;2.50;;
51374;SDS011;37465;52.738;4.752;2022-12-16T05:37:13;8.38;;;2.42;;
51374;SDS011;37465;52.738;4.752;2022-12-16T05:39:58;8.13;;;2.30;;
51374;SDS011;37465;52.738;4.752;2022-12-16T05:42:45;7.47;;;2.40;;
51374;SDS011;37465;52.738;4.752;2022-12-16T05:45:31;8.68;;;2.88;;
51374;SDS011;37465;52.738;4.752;2022-12-16T05:48:17;10.23;;;2.85;;
51374;SDS011;37465;52.738;4.752;2022-12-16T05:51:02;11.45;;;3.33;;
51374;SDS011;37465;52.738;4.752;2022-12-16T05:53:47;13.15;;;3.50;;
51374;SDS011;37465;52.738;4.752;2022-12-16T05:56:33;10.18;;;3.13;;
51374;SDS011;37465;52.738;4.752;2022-12-16T05:59:19;10.60;;;3.15;;
51374;SDS011;37465;52.738;4.752;2022-12-16T06:02:04;8.88;;;3.20;;
51374;SDS011;37465;52.738;4.752;2022-12-16T06:04:50;8.95;;;3.03;;
51374;SDS011;37465;52.738;4.752;2022-12-16T06:07:35;9.43;;;2.95;;
51374;SDS011;37465;52.738;4.752;2022-12-16T06:10:21;10.35;;;2.97;;
51374;SDS011;37465;52.738;4.752;2022-12-16T06:13:06;8.20;;;2.47;;
51374;SDS011;37465;52.738;4.752;2022-12-16T06:15:52;10.85;;;2.75;;
51374;SDS011;37465;52.738;4.752;2022-12-16T06:18:49;12.25;;;3.38;;
51374;SDS011;37465;52.738;4.752;2022-12-16T06:21:34;9.40;;;3.30;;
51374;SDS011;37465;52.738;4.752;2022-12-16T06:24:20;9.32;;;3.50;;
51374;SDS011;37465;52.738;4.752;2022-12-16T06:27:05;17.23;;;4.30;;
51374;SDS011;37465;52.738;4.752;2022-12-16T06:29:50;12.63;;;3.67;;
51374;SDS011;37465;52.738;4.752;2022-12-16T06:32:37;12.13;;;3.53;;
51374;SDS011;37465;52.738;4.752;2022-12-16T06:35:22;9.93;;;3.55;;
51374;SDS011;37465;52.738;4.752;2022-12-16T06:38:07;7.75;;;3.88;;
51374;SDS011;37465;52.738;4.752;2022-12-16T06:40:52;8.98;;;3.20;;
51374;SDS011;37465;52.738;4.752;2022-12-16T06:43:34;10.02;;;2.97;;
51374;SDS011;37465;52.738;4.752;2022-12-16T06:46:19;6.82;;;3.38;;
51374;SDS011;37465;52.738;4.752;2022-12-16T06:49:05;5.32;;;2.88;;
51374;SDS011;37465;52.738;4.752;2022-12-16T06:51:50;10.55;;;3.78;;
51374;SDS011;37465;52.738;4.752;2022-12-16T06:54:35;6.13;;;2.15;;
51374;SDS011;37465;52.738;4.752;2022-12-16T06:57:21;8.32;;;2.30;;
51374;SDS011;37465;52.738;4.752;2022-12-16T07:00:06;6.45;;;2.22;;
51374;SDS011;37465;52.738;4.752;2022-12-16T07:03:01;4.75;;;2.65;;
51374;SDS011;37465;52.738;4.752;2022-12-16T07:05:47;4.38;;;2.85;;
51374;SDS011;37465;52.738;4.752;2022-12-16T07:08:36;6.82;;;3.65;;
51374;SDS011;37465;52.738;4.752;2022-12-16T07:11:21;5.15;;;3.17;;
51374;SDS011;37465;52.738;4.752;2022-12-16T07:14:06;7.20;;;2.92;;
51374;SDS011;37465;52.738;4.752;2022-12-16T07:16:51;10.20;;;3.75;;
51374;SDS011;37465;52.738;4.752;2022-12-16T07:19:42;5.00;;;2.60;;
51374;SDS011;37465;52.738;4.752;2022-12-16T07:22:28;10.45;;;3.30;;
51374;SDS011;37465;52.738;4.752;2022-12-16T07:25:26;5.05;;;2.70;;
51374;SDS011;37465;52.738;4.752;2022-12-16T07:28:07;5.72;;;3.15;;
51374;SDS011;37465;52.738;4.752;2022-12-16T07:30:53;3.88;;;2.63;;
51374;SDS011;37465;52.738;4.752;2022-12-16T07:33:38;8.98;;;2.88;;
51374;SDS011;37465;52.738;4.752;2022-12-16T07:36:23;8.75;;;4.03;;
51374;SDS011;37465;52.738;4.752;2022-12-16T07:39:09;9.57;;;3.47;;
51374;SDS011;37465;52.738;4.752;2022-12-16T07:41:54;7.32;;;3.50;;
51374;SDS011;37465;52.738;4.752;2022-12-16T07:44:39;9.50;;;3.40;;
51374;SDS011;37465;52.738;4.752;2022-12-16T07:47:25;7.75;;;3.20;;
51374;SDS011;37465;52.738;4.752;2022-12-16T07:50:10;7.25;;;3.35;;
51374;SDS011;37465;52.738;4.752;2022-12-16T07:52:55;8.75;;;3.38;;
51374;SDS011;37465;52.738;4.752;2022-12-16T07:55:42;6.78;;;3.13;;
51374;SDS011;37465;52.738;4.752;2022-12-16T07:58:36;6.30;;;3.42;;
51374;SDS011;37465;52.738;4.752;2022-12-16T08:01:21;8.68;;;3.28;;
51374;SDS011;37465;52.738;4.752;2022-12-16T08:04:09;8.95;;;4.85;;
51374;SDS011;37465;52.738;4.752;2022-12-16T08:06:54;9.23;;;3.28;;
51374;SDS011;37465;52.738;4.752;2022-12-16T08:09:39;9.80;;;3.40;;
51374;SDS011;37465;52.738;4.752;2022-12-16T08:12:25;6.65;;;2.92;;
51374;SDS011;37465;52.738;4.752;2022-12-16T08:15:10;4.63;;;2.33;;
51374;SDS011;37465;52.738;4.752;2022-12-16T08:17:56;5.70;;;3.35;;
51374;SDS011;37465;52.738;4.752;2022-12-16T08:20:41;9.65;;;3.67;;
51374;SDS011;37465;52.738;4.752;2022-12-16T08:23:26;5.72;;;3.20;;
51374;SDS011;37465;52.738;4.752;2022-12-16T08:26:12;11.02;;;3.00;;
51374;SDS011;37465;52.738;4.752;2022-12-16T08:28:58;7.57;;;2.80;;
51374;SDS011;37465;52.738;4.752;2022-12-16T08:32:03;4.95;;;2.92;;
51374;SDS011;37465;52.738;4.752;2022-12-16T08:34:48;6.85;;;3.25;;
51374;SDS011;37465;52.738;4.752;2022-12-16T08:37:45;6.72;;;2.97;;
51374;SDS011;37465;52.738;4.752;2022-12-16T08:40:39;7.40;;;3.55;;
51374;SDS011;37465;52.738;4.752;2022-12-16T08:43:25;9.32;;;3.88;;
51374;SDS011;37465;52.738;4.752;2022-12-16T08:46:11;12.27;;;6.03;;
51374;SDS011;37465;52.738;4.752;2022-12-16T08:48:57;9.32;;;4.00;;
51374;SDS011;37465;52.738;4.752;2022-12-16T08:51:42;7.38;;;5.00;;
51374;SDS011;37465;52.738;4.752;2022-12-16T08:54:27;17.05;;;8.95;;
51374;SDS011;37465;52.738;4.752;2022-12-16T08:57:13;11.40;;;7.60;;
51374;SDS011;37465;52.738;4.752;2022-12-16T08:59:58;13.10;;;6.35;;
51374;SDS011;37465;52.738;4.752;2022-12-16T09:02:44;11.95;;;6.68;;
51374;SDS011;37465;52.738;4.752;2022-12-16T09:05:30;12.63;;;6.85;;
51374;SDS011;37465;52.738;4.752;2022-12-16T09:08:16;16.65;;;6.78;;
51374;SDS011;37465;52.738;4.752;2022-12-16T09:11:01;17.30;;;8.55;;
51374;SDS011;37465;52.738;4.752;2022-12-16T09:13:46;19.02;;;8.20;;
51374;SDS011;37465;52.738;4.752;2022-12-16T09:16:33;16.98;;;8.25;;
51374;SDS011;37465;52.738;4.752;2022-12-16T09:19:21;18.88;;;8.18;;
51374;SDS011;37465;52.738;4.752;2022-12-16T09:22:06;13.60;;;7.43;;
51374;SDS011;37465;52.738;4.752;2022-12-16T09:24:51;17.60;;;7.88;;
51374;SDS011;37465;52.738;4.752;2022-12-16T09:27:37;22.20;;;8.43;;
51374;SDS011;37465;52.738;4.752;2022-12-16T09:30:22;27.00;;;9.68;;
51374;SDS011;37465;52.738;4.752;2022-12-16T09:33:07;24.52;;;10.60;;
51374;SDS011;37465;52.738;4.752;2022-12-16T09:35:54;21.58;;;8.95;;
51374;SDS011;37465;52.738;4.752;2022-12-16T09:38:45;17.75;;;8.25;;
51374;SDS011;37465;52.738;4.752;2022-12-16T09:41:34;16.05;;;8.90;;
51374;SDS011;37465;52.738;4.752;2022-12-16T09:44:29;16.10;;;8.05;;
51374;SDS011;37465;52.738;4.752;2022-12-16T09:47:22;17.77;;;8.73;;
51374;SDS011;37465;52.738;4.752;2022-12-16T09:50:18;21.27;;;8.98;;
51374;SDS011;37465;52.738;4.752;2022-12-16T09:53:06;27.85;;;10.13;;
51374;SDS011;37465;52.738;4.752;2022-12-16T09:55:54;19.52;;;8.43;;
51374;SDS011;37465;52.738;4.752;2022-12-16T09:58:41;27.05;;;10.32;;
51374;SDS011;37465;52.738;4.752;2022-12-16T10:01:27;20.15;;;10.70;;
51374;SDS011;37465;52.738;4.752;2022-12-16T10:04:15;25.40;;;12.20;;
51374;SDS011;37465;52.738;4.752;2022-12-16T10:07:00;27.35;;;12.45;;
51374;SDS011;37465;52.738;4.752;2022-12-16T10:48:42;16.58;;;7.22;;
51374;SDS011;37465;52.738;4.752;2022-12-16T10:51:28;15.68;;;7.97;;
51374;SDS011;37465;52.738;4.752;2022-12-16T10:54:25;17.30;;;9.18;;
51374;SDS011;37465;52.738;4.752;2022-12-16T10:57:17;22.45;;;12.02;;
51374;SDS011;37465;52.738;4.752;2022-12-16T11:02:55;22.30;;;11.32;;
51374;SDS011;37465;52.738;4.752;2022-12-16T11:05:41;24.50;;;12.57;;
51374;SDS011;37465;52.738;4.752;2022-12-16T11:08:27;18.60;;;10.90;;
51374;SDS011;37465;52.738;4.752;2022-12-16T11:11:14;24.35;;;11.30;;
51374;SDS011;37465;52.738;4.752;2022-12-16T11:14:11;17.10;;;12.57;;
51374;SDS011;37465;52.738;4.752;2022-12-16T11:17:14;15.15;;;11.18;;
51374;SDS011;37465;52.738;4.752;2022-12-16T11:23:10;14.13;;;8.60;;
51374;SDS011;37465;52.738;4.752;2022-12-16T11:26:09;14.30;;;7.95;;
51374;SDS011;37465;52.738;4.752;2022-12-16T11:29:08;13.15;;;8.23;;
51374;SDS011;37465;52.738;4.752;2022-12-16T11:32:01;9.32;;;6.80;;
51374;SDS011;37465;52.738;4.752;2022-12-16T11:34:50;9.60;;;5.63;;
51374;SDS011;37465;52.738;4.752;2022-12-16T11:37:42;9.57;;;6.20;;
51374;SDS011;37465;52.738;4.752;2022-12-16T11:40:28;6.68;;;5.07;;
51374;SDS011;37465;52.738;4.752;2022-12-16T11:43:14;9.27;;;5.63;;
51374;SDS011;37465;52.738;4.752;2022-12-16T11:46:02;8.55;;;5.10;;
51374;SDS011;37465;52.738;4.752;2022-12-16T11:48:49;7.03;;;4.78;;
51374;SDS011;37465;52.738;4.752;2022-12-16T11:51:40;8.52;;;5.18;;
51374;SDS011;37465;52.738;4.752;2022-12-16T11:54:49;7.50;;;4.57;;
51374;SDS011;37465;52.738;4.752;2022-12-16T11:57:40;5.78;;;4.10;;
51374;SDS011;37465;52.738;4.752;2022-12-16T12:00:28;6.38;;;3.92;;
51374;SDS011;37465;52.738;4.752;2022-12-16T12:03:13;5.87;;;4.10;;
51374;SDS011;37465;52.738;4.752;2022-12-16T12:06:04;6.53;;;4.53;;
51374;SDS011;37465;52.738;4.752;2022-12-16T12:08:58;6.25;;;4.03;;
51374;SDS011;37465;52.738;4.752;2022-12-16T12:11:47;7.60;;;3.80;;
51374;SDS011;37465;52.738;4.752;2022-12-16T12:14:37;6.97;;;3.63;;
51374;SDS011;37465;52.738;4.752;2022-12-16T12:17:28;7.30;;;4.20;;
51374;SDS011;37465;52.738;4.752;2022-12-16T12:20:27;4.60;;;3.30;;
51374;SDS011;37465;52.738;4.752;2022-12-16T12:23:19;3.35;;;2.40;;
51374;SDS011;37465;52.738;4.752;2022-12-16T12:26:20;3.08;;;2.17;;
51374;SDS011;37465;52.738;4.752;2022-12-16T12:29:10;3.83;;;2.40;;
51374;SDS011;37465;52.738;4.752;2022-12-16T12:31:59;4.72;;;1.90;;
51374;SDS011;37465;52.738;4.752;2022-12-16T12:34:49;2.65;;;1.98;;
51374;SDS011;37465;52.738;4.752;2022-12-16T12:37:38;4.03;;;2.30;;
51374;SDS011;37465;52.738;4.752;2022-12-16T12:40:34;3.10;;;1.90;;
51374;SDS011;37465;52.738;4.752;2022-12-16T12:43:28;4.05;;;2.13;;
51374;SDS011;37465;52.738;4.752;2022-12-16T12:46:22;3.87;;;2.23;;
51374;SDS011;37465;52.738;4.752;2022-12-16T12:49:12;3.30;;;2.05;;
51374;SDS011;37465;52.738;4.752;2022-12-16T12:52:02;3.85;;;1.90;;
51374;SDS011;37465;52.738;4.752;2022-12-16T12:54:52;3.97;;;1.88;;
51374;SDS011;37465;52.738;4.752;2022-12-16T12:57:41;4.38;;;2.00;;
51374;SDS011;37465;52.738;4.752;2022-12-16T13:00:29;3.55;;;1.92;;
51374;SDS011;37465;52.738;4.752;2022-12-16T13:03:20;3.53;;;1.80;;
51374;SDS011;37465;52.738;4.752;2022-12-16T13:06:11;3.75;;;2.05;;
51374;SDS011;37465;52.738;4.752;2022-12-16T13:08:58;3.05;;;1.73;;
51374;SDS011;37465;52.738;4.752;2022-12-16T13:15:02;4.13;;;2.05;;
51374;SDS011;37465;52.738;4.752;2022-12-16T13:24:31;3.65;;;2.40;;
51374;SDS011;37465;52.738;4.752;2022-12-16T13:27:19;4.85;;;2.20;;
51374;SDS011;37465;52.738;4.752;2022-12-16T13:30:16;5.60;;;1.85;;
51374;SDS011;37465;52.738;4.752;2022-12-16T13:33:05;4.78;;;1.40;;
51374;SDS011;37465;52.738;4.752;2022-12-16T13:35:51;3.47;;;1.58;;
51374;SDS011;37465;52.738;4.752;2022-12-16T13:38:44;3.17;;;1.80;;
51374;SDS011;37465;52.738;4.752;2022-12-16T13:41:46;3.72;;;1.40;;
51374;SDS011;37465;52.738;4.752;2022-12-16T13:44:55;3.63;;;1.70;;
51374;SDS011;37465;52.738;4.752;2022-12-16T13:47:57;3.60;;;1.90;;
51374;SDS011;37465;52.738;4.752;2022-12-16T13:50:44;2.30;;;1.77;;
51374;SDS011;37465;52.738;4.752;2022-12-16T13:53:30;3.38;;;1.65;;
51374;SDS011;37465;52.738;4.752;2022-12-16T13:56:19;2.92;;;2.08;;
51374;SDS011;37465;52.738;4.752;2022-12-16T13:59:10;2.15;;;1.70;;
51374;SDS011;37465;52.738;4.752;2022-12-16T14:02:00;3.47;;;1.77;;
51374;SDS011;37465;52.738;4.752;2022-12-16T14:04:48;3.50;;;1.70;;
51374;SDS011;37465;52.738;4.752;2022-12-16T14:07:32;6.25;;;2.15;;
51374;SDS011;37465;52.738;4.752;2022-12-16T14:10:21;4.50;;;2.22;;
51374;SDS011;37465;52.738;4.752;2022-12-16T14:13:11;3.70;;;1.92;;
51374;SDS011;37465;52.738;4.752;2022-12-16T14:16:03;2.47;;;1.70;;
51374;SDS011;37465;52.738;4.752;2022-12-16T14:18:56;3.95;;;1.95;;
51374;SDS011;37465;52.738;4.752;2022-12-16T14:21:49;3.85;;;2.25;;
51374;SDS011;37465;52.738;4.752;2022-12-16T14:24:36;2.80;;;1.73;;
51374;SDS011;37465;52.738;4.752;2022-12-16T14:27:22;3.97;;;2.22;;
51374;SDS011;37465;52.738;4.752;2022-12-16T14:30:17;3.20;;;2.13;;
51374;SDS011;37465;52.738;4.752;2022-12-16T14:36:20;4.10;;;2.97;;
51374;SDS011;37465;52.738;4.752;2022-12-16T14:39:08;5.00;;;3.85;;
51374;SDS011;37465;52.738;4.752;2022-12-16T14:41:54;6.60;;;4.90;;
51374;SDS011;37465;52.738;4.752;2022-12-16T14:47:55;4.47;;;2.60;;
51374;SDS011;37465;52.738;4.752;2022-12-16T14:50:40;4.68;;;2.33;;
51374;SDS011;37465;52.738;4.752;2022-12-16T15:12:55;2.40;;;1.90;;
51374;SDS011;37465;52.738;4.752;2022-12-16T15:15:41;4.45;;;2.80;;
51374;SDS011;37465;52.738;4.752;2022-12-16T15:18:28;2.80;;;2.55;;
51374;SDS011;37465;52.738;4.752;2022-12-16T15:21:17;8.27;;;5.10;;
51374;SDS011;37465;52.738;4.752;2022-12-16T15:24:06;8.38;;;4.50;;
51374;SDS011;37465;52.738;4.752;2022-12-16T15:29:58;9.15;;;6.32;;
51374;SDS011;37465;52.738;4.752;2022-12-16T15:35:35;4.78;;;3.53;;
51374;SDS011;37465;52.738;4.752;2022-12-16T15:38:25;5.65;;;3.65;;
51374;SDS011;37465;52.738;4.752;2022-12-16T15:41:19;9.25;;;5.60;;
51374;SDS011;37465;52.738;4.752;2022-12-16T15:44:13;6.22;;;3.80;;
51374;SDS011;37465;52.738;4.752;2022-12-16T15:47:01;5.38;;;3.05;;
51374;SDS011;37465;52.738;4.752;2022-12-16T15:49:46;7.78;;;4.38;;
51374;SDS011;37465;52.738;4.752;2022-12-16T15:52:34;6.05;;;3.22;;
51374;SDS011;37465;52.738;4.752;2022-12-16T15:55:26;4.22;;;3.13;;
51374;SDS011;37465;52.738;4.752;2022-12-16T15:58:13;5.03;;;3.38;;
51374;SDS011;37465;52.738;4.752;2022-12-16T16:01:02;7.07;;;4.13;;
51374;SDS011;37465;52.738;4.752;2022-12-16T16:03:49;8.10;;;4.43;;
51374;SDS011;37465;52.738;4.752;2022-12-16T16:06:35;6.32;;;3.80;;
51374;SDS011;37465;52.738;4.752;2022-12-16T16:09:20;10.30;;;4.10;;
51374;SDS011;37465;52.738;4.752;2022-12-16T16:12:08;4.80;;;4.10;;
51374;SDS011;37465;52.738;4.752;2022-12-16T16:14:54;6.85;;;3.92;;
51374;SDS011;37465;52.738;4.752;2022-12-16T16:17:39;6.20;;;4.20;;
51374;SDS011;37465;52.738;4.752;2022-12-16T16:20:25;5.53;;;4.05;;
51374;SDS011;37465;52.738;4.752;2022-12-16T16:23:10;5.75;;;4.60;;
51374;SDS011;37465;52.738;4.752;2022-12-16T16:25:55;5.10;;;4.38;;
51374;SDS011;37465;52.738;4.752;2022-12-16T16:28:42;5.53;;;4.07;;
51374;SDS011;37465;52.738;4.752;2022-12-16T16:31:28;6.45;;;4.40;;
51374;SDS011;37465;52.738;4.752;2022-12-16T16:34:13;6.68;;;4.78;;
51374;SDS011;37465;52.738;4.752;2022-12-16T16:36:58;8.10;;;5.20;;
51374;SDS011;37465;52.738;4.752;2022-12-16T16:39:44;7.78;;;6.15;;
51374;SDS011;37465;52.738;4.752;2022-12-16T16:42:29;8.77;;;6.60;;
51374;SDS011;37465;52.738;4.752;2022-12-16T16:45:16;12.55;;;8.50;;
51374;SDS011;37465;52.738;4.752;2022-12-16T16:48:03;11.60;;;8.35;;
51374;SDS011;37465;52.738;4.752;2022-12-16T16:50:50;14.73;;;10.60;;
51374;SDS011;37465;52.738;4.752;2022-12-16T16:53:38;22.70;;;13.77;;
51374;SDS011;37465;52.738;4.752;2022-12-16T16:56:24;21.95;;;14.57;;
51374;SDS011;37465;52.738;4.752;2022-12-16T16:59:09;20.52;;;14.50;;
51374;SDS011;37465;52.738;4.752;2022-12-16T17:01:57;23.92;;;15.25;;
51374;SDS011;37465;52.738;4.752;2022-12-16T17:04:43;19.85;;;14.15;;
51374;SDS011;37465;52.738;4.752;2022-12-16T17:07:28;23.02;;;15.43;;
51374;SDS011;37465;52.738;4.752;2022-12-16T17:10:19;25.20;;;16.35;;
51374;SDS011;37465;52.738;4.752;2022-12-16T17:13:03;21.08;;;15.90;;
51374;SDS011;37465;52.738;4.752;2022-12-16T17:15:48;23.83;;;16.52;;
51374;SDS011;37465;52.738;4.752;2022-12-16T17:18:35;23.70;;;17.35;;
51374;SDS011;37465;52.738;4.752;2022-12-16T17:21:20;20.83;;;16.38;;
51374;SDS011;37465;52.738;4.752;2022-12-16T17:24:05;22.55;;;17.02;;
51374;SDS011;37465;52.738;4.752;2022-12-16T17:26:51;22.10;;;15.02;;
51374;SDS011;37465;52.738;4.752;2022-12-16T17:29:36;19.95;;;14.27;;
51374;SDS011;37465;52.738;4.752;2022-12-16T17:32:21;20.13;;;13.60;;
51374;SDS011;37465;52.738;4.752;2022-12-16T17:35:09;18.30;;;13.45;;
51374;SDS011;37465;52.738;4.752;2022-12-16T17:37:55;18.60;;;14.02;;
51374;SDS011;37465;52.738;4.752;2022-12-16T17:40:40;21.85;;;13.35;;
51374;SDS011;37465;52.738;4.752;2022-12-16T17:43:26;21.75;;;14.38;;
51374;SDS011;37465;52.738;4.752;2022-12-16T17:46:11;17.60;;;13.95;;
51374;SDS011;37465;52.738;4.752;2022-12-16T17:48:57;18.92;;;13.43;;
51374;SDS011;37465;52.738;4.752;2022-12-16T17:51:43;25.42;;;16.55;;
51374;SDS011;37465;52.738;4.752;2022-12-16T17:54:29;20.17;;;15.52;;